createdAt,value
2023-01-13T00:00:30.819Z,0
2023-01-13T00:01:30.797Z,0
2023-01-13T00:02:31.399Z,0
2023-01-13T00:03:31.742Z,0
2023-01-13T00:04:33.030Z,0
2023-01-13T00:05:33.116Z,0
2023-01-13T00:06:34.934Z,0
2023-01-13T00:07:34.628Z,0
2023-01-13T00:08:35.116Z,0
2023-01-13T00:09:36.142Z,0
2023-01-13T00:10:37.790Z,0
2023-01-13T00:11:38.500Z,0
2023-01-13T00:12:38.806Z,0
2023-01-13T00:13:39.233Z,0
2023-01-13T00:14:39.620Z,0
2023-01-13T00:15:40.399Z,0
2023-01-13T00:16:41.450Z,0
2023-01-13T00:17:41.827Z,0
2023-01-13T00:18:42.808Z,0
2023-01-13T00:19:42.900Z,0
2023-01-13T00:20:43.865Z,0
2023-01-13T00:21:44.220Z,0
2023-01-13T00:22:44.213Z,0
2023-01-13T00:23:45.194Z,0
2023-01-13T00:24:45.285Z,0
2023-01-13T00:25:46.307Z,0
2023-01-13T00:26:47.718Z,0
2023-01-13T00:27:48.792Z,0
2023-01-13T00:28:48.789Z,0
2023-01-13T00:29:49.157Z,0
2023-01-13T00:30:50.162Z,0
2023-01-13T00:31:50.604Z,0
2023-01-13T00:32:51.008Z,0
2023-01-13T00:33:51.814Z,0
2023-01-13T00:34:52.191Z,0
2023-01-13T00:35:53.831Z,0
2023-01-13T00:36:54.535Z,0
2023-01-13T00:37:54.924Z,0
2023-01-13T00:38:54.997Z,0
2023-01-13T00:39:55.791Z,0
2023-01-13T00:40:55.867Z,0
2023-01-13T00:41:57.279Z,0
2023-01-13T00:42:58.676Z,0
2023-01-13T00:43:59.759Z,0
2023-01-13T00:45:00.722Z,0
2023-01-13T00:46:01.438Z,0
2023-01-13T00:47:02.075Z,0
2023-01-13T00:48:02.733Z,0
2023-01-13T00:49:03.732Z,0
2023-01-13T00:50:04.461Z,0
2023-01-13T00:51:05.120Z,0
2023-01-13T00:52:05.879Z,0
2023-01-13T00:53:07.006Z,0
2023-01-13T00:54:07.371Z,0
2023-01-13T00:55:08.506Z,0
2023-01-13T00:56:08.883Z,0
2023-01-13T00:57:09.671Z,0
2023-01-13T00:58:10.385Z,0
2023-01-13T00:59:11.082Z,0
2023-01-13T01:00:12.103Z,0
2023-01-13T01:01:13.664Z,0
2023-01-13T01:02:14.489Z,0
2023-01-13T01:03:14.273Z,0
2023-01-13T01:04:14.986Z,0
2023-01-13T01:05:15.045Z,0
2023-01-13T01:06:16.408Z,0
2023-01-13T01:07:16.800Z,0
2023-01-13T01:08:17.166Z,0
2023-01-13T01:09:18.148Z,0
2023-01-13T01:10:18.835Z,0
2023-01-13T01:11:19.531Z,0
2023-01-13T01:12:20.240Z,0
2023-01-13T01:13:20.943Z,0
2023-01-13T01:14:21.675Z,0
2023-01-13T01:15:22.322Z,0
2023-01-13T01:16:23.721Z,0
2023-01-13T01:17:22.605Z,0
2023-01-13T01:18:24.024Z,0
2023-01-13T01:19:24.847Z,0
2023-01-13T01:20:25.902Z,0
2023-01-13T01:21:26.664Z,0
2023-01-13T01:22:27.353Z,0
2023-01-13T01:23:27.740Z,0
2023-01-13T01:24:27.892Z,0
2023-01-13T01:25:28.281Z,0
2023-01-13T01:26:28.674Z,0
2023-01-13T01:27:29.645Z,0
2023-01-13T01:28:30.152Z,0
2023-01-13T01:29:30.142Z,0
2023-01-13T01:30:30.525Z,0
2023-01-13T01:31:31.905Z,0
2023-01-13T01:32:31.017Z,0
2023-01-13T01:33:32.653Z,0
2023-01-13T01:34:33.326Z,0
2023-01-13T01:35:34.007Z,0
2023-01-13T01:36:34.705Z,0
2023-01-13T01:37:35.398Z,0
2023-01-13T01:38:36.073Z,0
2023-01-13T01:39:36.750Z,0
2023-01-13T01:40:37.497Z,0
2023-01-13T01:41:37.588Z,0
2023-01-13T01:42:38.281Z,0
2023-01-13T01:43:38.644Z,0
2023-01-13T01:44:39.625Z,0
2023-01-13T01:45:40.603Z,0
2023-01-13T01:46:41.622Z,0
2023-01-13T01:47:42.458Z,0
2023-01-13T01:48:42.440Z,0
2023-01-13T01:49:42.855Z,0
2023-01-13T01:50:43.233Z,0
2023-01-13T01:51:44.200Z,0
2023-01-13T01:52:44.557Z,0
2023-01-13T01:53:45.153Z,0
2023-01-13T01:54:44.930Z,0
2023-01-13T01:55:46.631Z,0
2023-01-13T01:56:47.644Z,0
2023-01-13T01:57:47.465Z,0
2023-01-13T01:58:48.192Z,0
2023-01-13T01:59:49.202Z,0
2023-01-13T02:00:49.823Z,0
2023-01-13T02:01:50.416Z,0
2023-01-13T02:02:49.882Z,0
2023-01-13T02:03:50.889Z,0
2023-01-13T02:04:51.364Z,0
2023-01-13T02:05:53.030Z,0
2023-01-13T02:06:54.063Z,0
2023-01-13T02:07:54.431Z,0
2023-01-13T02:08:55.148Z,0
2023-01-13T02:09:56.824Z,0
2023-01-13T02:10:57.523Z,0
2023-01-13T02:11:57.605Z,0
2023-01-13T02:12:59.346Z,0
2023-01-13T02:14:00.043Z,0
2023-01-13T02:15:01.034Z,0
2023-01-13T02:16:01.134Z,0
2023-01-13T02:17:01.608Z,0
2023-01-13T02:18:02.763Z,0
2023-01-13T02:19:03.119Z,0
2023-01-13T02:20:03.777Z,0
2023-01-13T02:21:04.522Z,0
2023-01-13T02:22:06.214Z,0
2023-01-13T02:23:06.296Z,0
2023-01-13T02:24:07.641Z,0
2023-01-13T02:25:08.055Z,0
2023-01-13T02:26:09.119Z,0
2023-01-13T02:27:09.610Z,0
2023-01-13T02:28:10.299Z,0
2023-01-13T02:29:10.409Z,0
2023-01-13T02:30:11.145Z,0
2023-01-13T02:31:11.895Z,0
2023-01-13T02:32:12.641Z,0
2023-01-13T02:33:13.355Z,0
2023-01-13T02:34:13.169Z,0
2023-01-13T02:35:14.380Z,0
2023-01-13T02:36:14.256Z,0
2023-01-13T02:37:14.951Z,0
2023-01-13T02:38:15.332Z,0
2023-01-13T02:39:16.682Z,0
2023-01-13T02:40:18.033Z,0
2023-01-13T02:41:19.012Z,0
2023-01-13T02:42:19.352Z,0
2023-01-13T02:43:19.286Z,0
2023-01-13T02:44:20.618Z,0
2023-01-13T02:45:21.270Z,0
2023-01-13T02:46:21.909Z,0
2023-01-13T02:47:22.318Z,0
2023-01-13T02:48:23.086Z,0
2023-01-13T02:49:23.785Z,0
2023-01-13T02:50:24.754Z,0
2023-01-13T02:51:25.437Z,0
2023-01-13T02:52:25.775Z,0
2023-01-13T02:53:27.157Z,0
2023-01-13T02:54:27.170Z,0
2023-01-13T02:55:28.857Z,0
2023-01-13T02:56:29.281Z,0
2023-01-13T02:57:29.638Z,0
2023-01-13T02:58:30.341Z,0
2023-01-13T02:59:31.379Z,0
2023-01-13T03:00:31.637Z,0
2023-01-13T03:01:33.348Z,0
2023-01-13T03:02:32.939Z,0
2023-01-13T03:03:33.604Z,0
2023-01-13T03:04:34.395Z,0
2023-01-13T03:05:35.616Z,0
2023-01-13T03:06:35.545Z,0
2023-01-13T03:07:35.937Z,0
2023-01-13T03:08:36.849Z,0
2023-01-13T03:09:37.758Z,0
2023-01-13T03:10:38.406Z,0
2023-01-13T03:11:39.106Z,0
2023-01-13T03:12:40.316Z,0
2023-01-13T03:13:40.978Z,0
2023-01-13T03:14:41.789Z,0
2023-01-13T03:15:42.299Z,0
2023-01-13T03:16:42.297Z,0
2023-01-13T03:17:42.608Z,0
2023-01-13T03:18:43.807Z,0
2023-01-13T03:19:43.733Z,0
2023-01-13T03:20:43.949Z,0
2023-01-13T03:21:43.861Z,0
2023-01-13T03:22:44.840Z,0
2023-01-13T03:23:45.455Z,0
2023-01-13T03:24:46.526Z,0
2023-01-13T03:25:46.733Z,0
2023-01-13T03:26:47.947Z,0
2023-01-13T03:27:47.881Z,0
2023-01-13T03:28:48.840Z,0
2023-01-13T03:29:49.405Z,0
2023-01-13T03:30:50.140Z,0
2023-01-13T03:31:50.111Z,0
2023-01-13T03:32:51.316Z,0
2023-01-13T03:33:51.841Z,0
2023-01-13T03:34:52.024Z,0
2023-01-13T03:35:52.237Z,0
2023-01-13T03:36:52.184Z,0
2023-01-13T03:37:52.101Z,0
2023-01-13T03:38:53.617Z,0
2023-01-13T03:39:54.268Z,0
2023-01-13T03:40:54.484Z,0
2023-01-13T03:41:54.411Z,0
2023-01-13T03:42:55.391Z,0
2023-01-13T03:43:56.626Z,0
2023-01-13T03:44:57.643Z,0
2023-01-13T03:45:57.523Z,0
2023-01-13T03:46:58.616Z,0
2023-01-13T03:47:59.922Z,0
2023-01-13T03:48:59.847Z,0
2023-01-13T03:50:00.497Z,0
2023-01-13T03:51:00.829Z,0
2023-01-13T03:52:01.743Z,0
2023-01-13T03:53:02.946Z,0
2023-01-13T03:54:03.157Z,0
2023-01-13T03:55:04.198Z,0
2023-01-13T03:56:04.885Z,0
2023-01-13T03:57:05.818Z,0
2023-01-13T03:58:07.342Z,0
2023-01-13T03:59:07.335Z,0
2023-01-13T04:00:07.922Z,0
2023-01-13T04:01:09.096Z,0
2023-01-13T04:02:10.297Z,0
2023-01-13T04:03:09.701Z,0
2023-01-13T04:04:10.945Z,0
2023-01-13T04:05:11.037Z,0
2023-01-13T04:06:12.233Z,0
2023-01-13T04:07:12.646Z,0
2023-01-13T04:08:12.848Z,0
2023-01-13T04:09:12.465Z,0
2023-01-13T04:10:13.845Z,0
2023-01-13T04:11:13.765Z,0
2023-01-13T04:12:14.624Z,0
2023-01-13T04:13:14.817Z,0
2023-01-13T04:14:15.025Z,0
2023-01-13T04:15:16.097Z,0
2023-01-13T04:16:16.842Z,0
2023-01-13T04:17:16.777Z,0
2023-01-13T04:18:18.023Z,0
2023-01-13T04:19:18.238Z,0
2023-01-13T04:20:18.895Z,0
2023-01-13T04:21:19.570Z,0
2023-01-13T04:22:20.491Z,0
2023-01-13T04:23:20.417Z,0
2023-01-13T04:24:20.942Z,0
2023-01-13T04:25:21.582Z,0
2023-01-13T04:26:21.820Z,0
2023-01-13T04:27:23.026Z,0
2023-01-13T04:28:23.996Z,0
2023-01-13T04:29:27.058Z,0
2023-01-13T04:30:25.058Z,0
2023-01-13T04:31:25.722Z,0
2023-01-13T04:32:25.648Z,0
2023-01-13T04:33:26.905Z,0
2023-01-13T04:34:28.338Z,0
2023-01-13T04:35:27.640Z,0
2023-01-13T04:36:27.641Z,0
2023-01-13T04:37:28.320Z,0
2023-01-13T04:38:28.565Z,0
2023-01-13T04:39:29.083Z,0
2023-01-13T04:40:29.020Z,0
2023-01-13T04:41:29.226Z,0
2023-01-13T04:42:29.430Z,0
2023-01-13T04:43:30.097Z,0
2023-01-13T04:44:31.337Z,0
2023-01-13T04:45:32.071Z,0
2023-01-13T04:46:32.165Z,0
2023-01-13T04:47:33.157Z,0
2023-01-13T04:48:33.079Z,0
2023-01-13T04:49:34.040Z,0
2023-01-13T04:50:34.313Z,0
2023-01-13T04:51:34.562Z,0
2023-01-13T04:52:35.564Z,0
2023-01-13T04:53:36.215Z,0
2023-01-13T04:54:37.143Z,0
2023-01-13T04:55:37.173Z,0
2023-01-13T04:56:37.812Z,0
2023-01-13T04:57:39.012Z,0
2023-01-13T04:58:38.674Z,0
2023-01-13T04:59:40.084Z,0
2023-01-13T05:00:40.375Z,0
2023-01-13T05:01:40.916Z,0
2023-01-13T05:02:41.062Z,0
2023-01-13T05:03:41.987Z,0
2023-01-13T05:04:41.773Z,0
2023-01-13T05:05:42.284Z,0
2023-01-13T05:06:42.923Z,0
2023-01-13T05:07:43.577Z,0
2023-01-13T05:08:44.535Z,0
2023-01-13T05:09:44.763Z,0
2023-01-13T05:10:45.707Z,0
2023-01-13T05:11:46.643Z,0
2023-01-13T05:12:46.585Z,0
2023-01-13T05:13:47.506Z,0
2023-01-13T05:14:48.178Z,0
2023-01-13T05:15:49.069Z,0
2023-01-13T05:16:49.625Z,0
2023-01-13T05:17:49.578Z,0
2023-01-13T05:18:50.810Z,0
2023-01-13T05:19:51.175Z,0
2023-01-13T05:20:51.830Z,0
2023-01-13T05:21:52.468Z,0
2023-01-13T05:22:53.950Z,0
2023-01-13T05:23:53.910Z,0
2023-01-13T05:24:54.854Z,0
2023-01-13T05:25:55.929Z,0
2023-01-13T05:26:54.873Z,0
2023-01-13T05:27:55.790Z,0
2023-01-13T05:28:56.702Z,0
2023-01-13T05:29:57.661Z,0
2023-01-13T05:30:58.460Z,0
2023-01-13T05:31:58.523Z,0
2023-01-13T05:32:59.477Z,0
2023-01-13T05:33:59.745Z,0
2023-01-13T05:35:00.391Z,0
2023-01-13T05:36:01.418Z,0
2023-01-13T05:37:01.338Z,0
2023-01-13T05:38:01.963Z,0
2023-01-13T05:39:03.196Z,0
2023-01-13T05:40:03.138Z,0
2023-01-13T05:41:05.036Z,0
2023-01-13T05:42:04.248Z,0
2023-01-13T05:43:04.725Z,0
2023-01-13T05:44:04.917Z,0
2023-01-13T05:45:05.151Z,0
2023-01-13T05:46:06.181Z,0
2023-01-13T05:47:06.517Z,0
2023-01-13T05:48:06.739Z,0
2023-01-13T05:49:07.947Z,0
2023-01-13T05:50:08.179Z,0
2023-01-13T05:51:08.906Z,0
2023-01-13T05:52:09.556Z,0
2023-01-13T05:53:09.906Z,0
2023-01-13T05:54:11.113Z,0
2023-01-13T05:55:11.752Z,0
2023-01-13T05:56:12.047Z,0
2023-01-13T05:57:11.942Z,0
2023-01-13T05:58:13.139Z,0
2023-01-13T05:59:14.097Z,0
2023-01-13T06:00:15.096Z,0
2023-01-13T06:01:16.466Z,0
2023-01-13T06:02:16.471Z,0
2023-01-13T06:03:17.759Z,0
2023-01-13T06:04:18.027Z,0
2023-01-13T06:05:18.311Z,0
2023-01-13T06:06:18.649Z,0
2023-01-13T06:07:18.869Z,0
2023-01-13T06:08:18.809Z,0
2023-01-13T06:09:19.730Z,0
2023-01-13T06:10:20.660Z,0
2023-01-13T06:11:21.332Z,0
2023-01-13T06:12:22.529Z,0
2023-01-13T06:13:23.457Z,0
2023-01-13T06:14:23.719Z,0
2023-01-13T06:15:24.683Z,0
2023-01-13T06:16:25.389Z,0
2023-01-13T06:17:25.960Z,0
2023-01-13T06:18:25.891Z,0
2023-01-13T06:19:27.410Z,0
2023-01-13T06:20:28.264Z,0
2023-01-13T06:21:28.471Z,0
2023-01-13T06:22:29.420Z,0
2023-01-13T06:23:29.663Z,0
2023-01-13T06:24:30.341Z,0
2023-01-13T06:25:31.287Z,0
2023-01-13T06:26:32.093Z,0
2023-01-13T06:27:33.058Z,0
2023-01-13T06:28:32.724Z,0
2023-01-13T06:29:33.672Z,0
2023-01-13T06:30:34.720Z,0
2023-01-13T06:31:35.470Z,0
2023-01-13T06:32:35.883Z,0
2023-01-13T06:33:36.925Z,0
2023-01-13T06:34:36.856Z,0
2023-01-13T06:35:38.051Z,0
2023-01-13T06:36:38.538Z,0
2023-01-13T06:37:39.177Z,0
2023-01-13T06:38:40.668Z,0
2023-01-13T06:39:41.167Z,0
2023-01-13T06:40:41.839Z,0
2023-01-13T06:41:42.348Z,0
2023-01-13T06:42:42.311Z,0
2023-01-13T06:43:42.989Z,4
2023-01-13T06:44:44.219Z,4
2023-01-13T06:45:44.575Z,4
2023-01-13T06:46:45.074Z,0
2023-01-13T06:47:45.463Z,4
2023-01-13T06:48:46.711Z,4
2023-01-13T06:49:46.658Z,4
2023-01-13T06:50:46.592Z,8
2023-01-13T06:51:47.840Z,4
2023-01-13T06:52:48.326Z,4
2023-01-13T06:53:48.250Z,8
2023-01-13T06:54:49.453Z,8
2023-01-13T06:55:49.402Z,8
2023-01-13T06:56:50.108Z,12
2023-01-13T06:57:50.610Z,12
2023-01-13T06:58:50.724Z,12
2023-01-13T06:59:51.630Z,12
2023-01-13T07:00:52.660Z,16
2023-01-13T07:01:54.231Z,16
2023-01-13T07:02:54.268Z,16
2023-01-13T07:03:54.612Z,20
2023-01-13T07:04:54.845Z,20
2023-01-13T07:05:56.131Z,20
2023-01-13T07:06:56.214Z,24
2023-01-13T07:07:57.184Z,24
2023-01-13T07:08:57.867Z,24
2023-01-13T07:09:58.212Z,28
2023-01-13T07:10:58.604Z,28
2023-01-13T07:11:58.544Z,28
2023-01-13T07:12:59.183Z,32
2023-01-13T07:14:00.396Z,28
2023-01-13T07:15:00.606Z,32
2023-01-13T07:16:00.885Z,36
2023-01-13T07:17:02.072Z,40
2023-01-13T07:18:02.030Z,40
2023-01-13T07:19:03.538Z,44
2023-01-13T07:20:03.764Z,44
2023-01-13T07:21:04.017Z,48
2023-01-13T07:22:04.955Z,48
2023-01-13T07:23:05.613Z,48
2023-01-13T07:24:06.573Z,48
2023-01-13T07:25:07.531Z,48
2023-01-13T07:26:08.098Z,44
2023-01-13T07:27:08.437Z,48
2023-01-13T07:28:08.814Z,48
2023-01-13T07:29:10.460Z,48
2023-01-13T07:30:11.002Z,48
2023-01-13T07:31:11.281Z,48
2023-01-13T07:32:11.900Z,48
2023-01-13T07:33:11.834Z,52
2023-01-13T07:34:14.062Z,56
2023-01-13T07:35:14.013Z,60
2023-01-13T07:36:14.265Z,60
2023-01-13T07:37:14.625Z,68
2023-01-13T07:38:15.166Z,72
2023-01-13T07:39:15.682Z,84
2023-01-13T07:40:16.172Z,84
2023-01-13T07:41:16.117Z,88
2023-01-13T07:42:16.766Z,92
2023-01-13T07:43:17.209Z,92
2023-01-13T07:44:18.178Z,96
2023-01-13T07:45:21.825Z,96
2023-01-13T07:46:20.041Z,104
2023-01-13T07:47:20.773Z,108
2023-01-13T07:48:21.328Z,116
2023-01-13T07:49:21.260Z,120
2023-01-13T07:50:22.476Z,128
2023-01-13T07:51:23.052Z,136
2023-01-13T07:52:23.691Z,140
2023-01-13T07:53:23.900Z,144
2023-01-13T07:54:40.449Z,148
2023-01-13T07:55:25.450Z,148
2023-01-13T07:56:25.780Z,148
2023-01-13T07:57:26.407Z,148
2023-01-13T07:58:26.084Z,152
2023-01-13T07:59:27.311Z,152
2023-01-13T08:00:28.328Z,160
2023-01-13T08:01:30.353Z,168
2023-01-13T08:02:31.501Z,172
2023-01-13T08:03:31.163Z,176
2023-01-13T08:04:31.098Z,188
2023-01-13T08:05:32.115Z,208
2023-01-13T08:06:32.090Z,220
2023-01-13T08:07:33.442Z,232
2023-01-13T08:08:34.384Z,240
2023-01-13T08:09:34.902Z,240
2023-01-13T08:10:34.860Z,240
2023-01-13T08:11:35.515Z,232
2023-01-13T08:12:35.451Z,228
2023-01-13T08:13:36.474Z,232
2023-01-13T08:14:36.691Z,228
2023-01-13T08:15:38.256Z,224
2023-01-13T08:16:38.375Z,228
2023-01-13T08:17:38.857Z,232
2023-01-13T08:18:39.375Z,244
2023-01-13T08:19:39.864Z,248
2023-01-13T08:20:40.098Z,256
2023-01-13T08:21:40.321Z,256
2023-01-13T08:22:41.288Z,256
2023-01-13T08:23:41.948Z,256
2023-01-13T08:24:43.190Z,256
2023-01-13T08:25:43.130Z,268
2023-01-13T08:26:43.671Z,276
2023-01-13T08:27:44.318Z,292
2023-01-13T08:28:44.077Z,304
2023-01-13T08:29:44.747Z,308
2023-01-13T08:30:46.028Z,308
2023-01-13T08:31:47.119Z,312
2023-01-13T08:32:48.133Z,320
2023-01-13T08:33:48.472Z,328
2023-01-13T08:34:49.682Z,344
2023-01-13T08:35:49.613Z,360
2023-01-13T08:36:50.846Z,372
2023-01-13T08:37:51.177Z,372
2023-01-13T08:38:51.957Z,372
2023-01-13T08:39:53.508Z,376
2023-01-13T08:40:53.922Z,380
2023-01-13T08:41:55.163Z,392
2023-01-13T08:42:57.920Z,400
2023-01-13T08:43:56.324Z,408
2023-01-13T08:44:56.591Z,432
2023-01-13T08:45:57.045Z,476
2023-01-13T08:46:57.707Z,520
2023-01-13T08:47:58.484Z,544
2023-01-13T08:48:58.713Z,556
2023-01-13T08:49:59.022Z,544
2023-01-13T08:51:00.285Z,512
2023-01-13T08:52:00.516Z,476
2023-01-13T08:53:01.472Z,456
2023-01-13T08:54:02.254Z,448
2023-01-13T08:55:03.233Z,436
2023-01-13T08:56:04.460Z,428
2023-01-13T08:57:05.126Z,424
2023-01-13T08:58:21.675Z,400
2023-01-13T08:59:06.204Z,384
2023-01-13T09:00:06.727Z,368
2023-01-13T09:01:07.714Z,352
2023-01-13T09:02:09.008Z,352
2023-01-13T09:03:08.820Z,364
2023-01-13T09:04:09.328Z,372
2023-01-13T09:05:09.494Z,376
2023-01-13T09:06:10.443Z,372
2023-01-13T09:07:11.004Z,372
2023-01-13T09:08:11.439Z,372
2023-01-13T09:09:11.973Z,368
2023-01-13T09:10:11.928Z,368
2023-01-13T09:11:13.431Z,356
2023-01-13T09:12:14.080Z,356
2023-01-13T09:13:15.018Z,364
2023-01-13T09:14:15.937Z,388
2023-01-13T09:15:16.991Z,416
2023-01-13T09:16:18.439Z,424
2023-01-13T09:17:18.758Z,424
2023-01-13T09:18:19.869Z,416
2023-01-13T09:19:20.106Z,396
2023-01-13T09:20:21.354Z,380
2023-01-13T09:21:21.626Z,364
2023-01-13T09:22:22.296Z,352
2023-01-13T09:23:23.158Z,344
2023-01-13T09:24:23.421Z,336
2023-01-13T09:25:24.007Z,328
2023-01-13T09:26:24.250Z,336
2023-01-13T09:27:24.800Z,340
2023-01-13T09:28:25.702Z,336
2023-01-13T09:29:25.573Z,332
2023-01-13T09:30:26.158Z,320
2023-01-13T09:31:27.117Z,308
2023-01-13T09:32:27.572Z,308
2023-01-13T09:33:27.990Z,328
2023-01-13T09:34:28.385Z,356
2023-01-13T09:35:28.661Z,376
2023-01-13T09:36:29.266Z,408
2023-01-13T09:37:29.803Z,440
2023-01-13T09:38:30.639Z,476
2023-01-13T09:39:30.945Z,488
2023-01-13T09:40:31.595Z,452
2023-01-13T09:41:31.928Z,440
2023-01-13T09:42:32.152Z,460
2023-01-13T09:43:32.733Z,488
2023-01-13T09:44:32.703Z,496
2023-01-13T09:45:34.261Z,488
2023-01-13T09:46:34.486Z,488
2023-01-13T09:47:35.195Z,516
2023-01-13T09:48:35.393Z,500
2023-01-13T09:49:35.748Z,504
2023-01-13T09:50:36.981Z,496
2023-01-13T09:51:37.185Z,508
2023-01-13T09:52:38.091Z,528
2023-01-13T09:53:38.319Z,556
2023-01-13T09:54:38.928Z,632
2023-01-13T09:55:39.151Z,684
2023-01-13T09:56:39.691Z,712
2023-01-13T09:57:39.658Z,732
2023-01-13T09:58:40.721Z,780
2023-01-13T09:59:41.696Z,880
2023-01-13T10:00:41.679Z,964
2023-01-13T10:01:42.647Z,996
2023-01-13T10:02:43.913Z,1032
2023-01-13T10:03:44.939Z,1036
2023-01-13T10:04:44.217Z,1152
2023-01-13T10:05:44.573Z,1308
2023-01-13T10:06:45.107Z,1792
2023-01-13T10:07:46.276Z,3704
2023-01-13T10:08:46.094Z,2028
2023-01-13T10:09:47.028Z,2584
2023-01-13T10:10:48.552Z,1900
2023-01-13T10:11:48.766Z,2212
2023-01-13T10:12:49.004Z,3436
2023-01-13T10:13:49.262Z,2048
2023-01-13T10:14:49.764Z,1900
2023-01-13T10:15:50.274Z,2192
2023-01-13T10:16:50.622Z,1984
2023-01-13T10:17:52.179Z,1664
2023-01-13T10:18:52.541Z,1528
2023-01-13T10:19:53.079Z,1428
2023-01-13T10:20:53.015Z,1544
2023-01-13T10:21:53.968Z,1660
2023-01-13T10:22:55.243Z,1808
2023-01-13T10:23:55.457Z,1832
2023-01-13T10:24:56.684Z,1804
2023-01-13T10:25:56.992Z,1592
2023-01-13T10:26:57.320Z,1488
2023-01-13T10:27:57.864Z,1524
2023-01-13T10:28:57.675Z,1664
2023-01-13T10:29:58.997Z,1500
2023-01-13T10:30:59.727Z,1880
2023-01-13T10:31:59.692Z,1288
2023-01-13T10:33:00.964Z,1152
2023-01-13T10:34:02.245Z,1064
2023-01-13T10:35:02.783Z,908
2023-01-13T10:36:03.317Z,832
2023-01-13T10:37:03.846Z,804
2023-01-13T10:38:04.837Z,760
2023-01-13T10:39:05.151Z,736
2023-01-13T10:40:05.667Z,740
2023-01-13T10:41:05.929Z,784
2023-01-13T10:42:06.165Z,872
2023-01-13T10:43:06.875Z,948
2023-01-13T10:44:09.461Z,896
2023-01-13T10:45:07.798Z,820
2023-01-13T10:46:08.273Z,844
2023-01-13T10:47:08.321Z,880
2023-01-13T10:48:09.876Z,836
2023-01-13T10:49:10.594Z,788
2023-01-13T10:50:11.841Z,832
2023-01-13T10:51:11.096Z,896
2023-01-13T10:52:11.552Z,1012
2023-01-13T10:53:11.889Z,1028
2023-01-13T10:54:12.402Z,828
2023-01-13T10:55:13.023Z,720
2023-01-13T10:56:13.254Z,784
2023-01-13T10:57:13.971Z,864
2023-01-13T10:58:14.298Z,824
2023-01-13T10:59:14.672Z,592
2023-01-13T11:00:15.885Z,476
2023-01-13T11:01:15.910Z,432
2023-01-13T11:02:36.212Z,448
2023-01-13T11:03:16.663Z,540
2023-01-13T11:04:17.430Z,612
2023-01-13T11:05:18.275Z,716
2023-01-13T11:06:18.853Z,848
2023-01-13T11:07:18.874Z,1472
2023-01-13T11:08:19.932Z,6260
2023-01-13T11:09:20.597Z,9916
2023-01-13T11:10:20.841Z,4732
2023-01-13T11:11:22.073Z,2436
2023-01-13T11:12:22.039Z,2240
2023-01-13T11:13:22.604Z,7184
2023-01-13T11:14:22.834Z,6308
2023-01-13T11:15:24.069Z,8156
2023-01-13T11:16:25.130Z,7476
2023-01-13T11:17:25.150Z,1820
2023-01-13T11:18:25.403Z,1220
2023-01-13T11:19:26.192Z,1348
2023-01-13T11:20:26.168Z,1296
2023-01-13T11:21:27.709Z,1180
2023-01-13T11:22:27.374Z,1316
2023-01-13T11:23:28.589Z,1296
2023-01-13T11:24:29.285Z,944
2023-01-13T11:25:30.571Z,736
2023-01-13T11:26:30.508Z,708
2023-01-13T11:27:31.156Z,708
2023-01-13T11:28:32.373Z,628
2023-01-13T11:29:32.449Z,628
2023-01-13T11:30:33.672Z,692
2023-01-13T11:31:34.426Z,756
2023-01-13T11:32:34.528Z,936
2023-01-13T11:33:35.776Z,1084
2023-01-13T11:34:36.124Z,892
2023-01-13T11:35:36.652Z,876
2023-01-13T11:36:36.848Z,764
2023-01-13T11:37:37.777Z,596
2023-01-13T11:38:38.736Z,580
2023-01-13T11:39:39.507Z,684
2023-01-13T11:40:39.457Z,724
2023-01-13T11:41:41.059Z,680
2023-01-13T11:42:42.369Z,808
2023-01-13T11:43:41.603Z,1208
2023-01-13T11:44:42.121Z,1272
2023-01-13T11:45:42.383Z,704
2023-01-13T11:46:43.871Z,6568
2023-01-13T11:47:43.863Z,5556
2023-01-13T11:48:44.850Z,3768
2023-01-13T11:49:45.982Z,3536
2023-01-13T11:50:46.495Z,5120
2023-01-13T11:51:46.835Z,4272
2023-01-13T11:52:47.121Z,4688
2023-01-13T11:53:47.064Z,7576
2023-01-13T11:54:48.289Z,8952
2023-01-13T11:55:48.793Z,8820
2023-01-13T11:56:49.748Z,8176
2023-01-13T11:57:49.680Z,1768
2023-01-13T11:59:01.405Z,1352
2023-01-13T11:59:49.462Z,1016
2023-01-13T12:00:49.678Z,832
2023-01-13T12:01:51.317Z,864
2023-01-13T12:02:51.520Z,1228
2023-01-13T12:03:51.868Z,1708
2023-01-13T12:04:52.512Z,3780
2023-01-13T12:05:53.066Z,2120
2023-01-13T12:06:53.311Z,2232
2023-01-13T12:07:53.814Z,1756
2023-01-13T12:08:54.032Z,1908
2023-01-13T12:09:55.263Z,1864
2023-01-13T12:10:55.825Z,1500
2023-01-13T12:11:56.061Z,1228
2023-01-13T12:12:57.391Z,828
2023-01-13T12:13:56.597Z,804
2023-01-13T12:14:57.868Z,804
2023-01-13T12:15:57.907Z,908
2023-01-13T12:17:01.107Z,964
2023-01-13T12:17:59.231Z,1000
2023-01-13T12:18:59.752Z,924
2023-01-13T12:20:00.205Z,892
2023-01-13T12:21:00.732Z,952
2023-01-13T12:22:01.243Z,1060
2023-01-13T12:23:01.215Z,1292
2023-01-13T12:24:01.731Z,1148
2023-01-13T12:25:01.942Z,920
2023-01-13T12:26:02.931Z,788
2023-01-13T12:27:03.078Z,836
2023-01-13T12:28:03.735Z,1084
2023-01-13T12:29:05.457Z,1164
2023-01-13T12:30:06.124Z,984
2023-01-13T12:31:06.362Z,1028
2023-01-13T12:32:07.206Z,1140
2023-01-13T12:33:07.140Z,1044
2023-01-13T12:34:08.189Z,1004
2023-01-13T12:35:09.264Z,1236
2023-01-13T12:36:09.290Z,1512
2023-01-13T12:37:11.073Z,1544
2023-01-13T12:38:11.053Z,1544
2023-01-13T12:39:11.323Z,1384
2023-01-13T12:40:11.772Z,1296
2023-01-13T12:41:12.982Z,1616
2023-01-13T12:42:13.295Z,1152
2023-01-13T12:43:13.817Z,920
2023-01-13T12:44:13.757Z,736
2023-01-13T12:45:15.213Z,684
2023-01-13T12:46:15.341Z,632
2023-01-13T12:47:15.711Z,572
2023-01-13T12:48:15.666Z,456
2023-01-13T12:49:16.056Z,348
2023-01-13T12:50:16.748Z,264
2023-01-13T12:51:18.271Z,240
2023-01-13T12:52:17.322Z,260
2023-01-13T12:53:17.267Z,292
2023-01-13T12:54:18.236Z,320
2023-01-13T12:55:19.507Z,364
2023-01-13T12:56:18.912Z,404
2023-01-13T12:57:20.119Z,448
2023-01-13T12:58:20.628Z,500
2023-01-13T12:59:20.283Z,460
2023-01-13T13:00:21.565Z,372
2023-01-13T13:01:22.382Z,332
2023-01-13T13:02:23.709Z,324
2023-01-13T13:03:25.645Z,332
2023-01-13T13:04:24.635Z,312
2023-01-13T13:05:25.243Z,312
2023-01-13T13:06:25.796Z,332
2023-01-13T13:07:26.047Z,424
2023-01-13T13:08:26.290Z,604
2023-01-13T13:09:26.819Z,776
2023-01-13T13:10:27.014Z,844
2023-01-13T13:11:28.521Z,792
2023-01-13T13:12:28.875Z,592
2023-01-13T13:13:29.171Z,496
2023-01-13T13:14:30.509Z,472
2023-01-13T13:15:30.981Z,416
2023-01-13T13:16:32.397Z,388
2023-01-13T13:17:32.780Z,468
2023-01-13T13:18:33.539Z,604
2023-01-13T13:19:34.876Z,540
2023-01-13T13:20:36.181Z,480
2023-01-13T13:21:36.702Z,532
2023-01-13T13:22:36.920Z,652
2023-01-13T13:23:36.629Z,776
2023-01-13T13:24:37.863Z,1036
2023-01-13T13:25:38.118Z,1908
2023-01-13T13:26:39.359Z,2144
2023-01-13T13:27:39.579Z,1992
2023-01-13T13:28:39.810Z,1036
2023-01-13T13:29:40.037Z,1060
2023-01-13T13:30:40.413Z,960
2023-01-13T13:31:41.144Z,792
2023-01-13T13:32:42.378Z,656
2023-01-13T13:33:44.759Z,564
2023-01-13T13:34:43.000Z,532
2023-01-13T13:35:44.316Z,544
2023-01-13T13:36:47.187Z,496
2023-01-13T13:37:45.261Z,420
2023-01-13T13:38:46.297Z,332
2023-01-13T13:39:48.193Z,340
2023-01-13T13:40:47.558Z,484
2023-01-13T13:41:47.772Z,544
2023-01-13T13:42:48.758Z,468
2023-01-13T13:43:49.030Z,472
2023-01-13T13:44:49.987Z,680
2023-01-13T13:45:51.384Z,916
2023-01-13T13:46:51.161Z,840
2023-01-13T13:47:52.736Z,692
2023-01-13T13:48:53.221Z,640
2023-01-13T13:49:53.484Z,544
2023-01-13T13:50:54.274Z,432
2023-01-13T13:51:54.952Z,364
2023-01-13T13:52:55.302Z,344
2023-01-13T13:53:55.518Z,328
2023-01-13T13:54:55.970Z,328
2023-01-13T13:55:57.272Z,320
2023-01-13T13:56:57.528Z,320
2023-01-13T13:57:58.118Z,348
2023-01-13T13:58:58.642Z,412
2023-01-13T13:59:58.890Z,504
2023-01-13T14:01:00.094Z,596
2023-01-13T14:02:01.875Z,616
2023-01-13T14:03:01.509Z,552
2023-01-13T14:04:01.469Z,520
2023-01-13T14:05:02.699Z,584
2023-01-13T14:06:02.688Z,548
2023-01-13T14:07:03.274Z,516
2023-01-13T14:08:04.414Z,484
2023-01-13T14:09:03.407Z,520
2023-01-13T14:10:03.764Z,488
2023-01-13T14:11:04.246Z,420
2023-01-13T14:12:04.486Z,452
2023-01-13T14:13:05.743Z,440
2023-01-13T14:14:06.087Z,364
2023-01-13T14:15:06.092Z,336
2023-01-13T14:16:06.801Z,312
2023-01-13T14:17:07.162Z,280
2023-01-13T14:18:07.680Z,240
2023-01-13T14:19:07.652Z,212
2023-01-13T14:20:08.607Z,188
2023-01-13T14:21:09.759Z,196